createdAt,value
2018-06-13T00:01:57.743Z,101629.11
2018-06-13T00:04:27.221Z,101622.08
2018-06-13T00:06:56.429Z,101631.23
2018-06-13T00:09:25.456Z,101629.48
2018-06-13T00:11:54.514Z,101638.67
2018-06-13T00:14:23.563Z,101641.47
2018-06-13T00:16:52.861Z,101645.80
2018-06-13T00:19:22.609Z,101640.48
2018-06-13T00:21:52.051Z,101642.70
2018-06-13T00:24:21.107Z,101646.45
2018-06-13T00:26:50.152Z,101645.80
2018-06-13T00:29:20.114Z,101645.23
2018-06-13T00:31:49.372Z,101645.60
2018-06-13T00:34:18.703Z,101648.91
2018-06-13T00:36:47.722Z,101647.85
2018-06-13T00:39:17.070Z,101646.42
2018-06-13T00:41:46.920Z,101646.55
2018-06-13T00:44:15.983Z,101648.95
2018-06-13T00:46:45.010Z,101651.98
2018-06-13T00:49:14.040Z,101650.45
2018-06-13T00:51:43.099Z,101648.21
2018-06-13T00:54:12.176Z,101648.05
2018-06-13T00:56:41.528Z,101642.98
2018-06-13T00:59:10.612Z,101641.62
2018-06-13T01:01:39.641Z,101638.48
2018-06-13T01:04:09.343Z,101648.75
2018-06-13T01:06:38.365Z,101644.41
2018-06-13T01:09:08.523Z,101643.15
2018-06-13T01:11:37.535Z,101641.26
2018-06-13T01:14:06.804Z,101638.27
2018-06-13T01:16:35.854Z,101636.40
2018-06-13T01:19:04.922Z,101635.38
2018-06-13T01:21:34.029Z,101633.00
2018-06-13T01:24:03.435Z,101637.46
2018-06-13T01:26:32.885Z,101637.78
2018-06-13T01:29:01.893Z,101634.19
2018-06-13T01:31:31.049Z,101637.30
2018-06-13T01:34:00.086Z,101634.68
2018-06-13T01:36:29.685Z,101638.52
2018-06-13T01:38:58.735Z,101636.02
2018-06-13T01:41:27.823Z,101639.75
2018-06-13T01:43:56.863Z,101630.22
2018-06-13T01:46:25.903Z,101635.70
2018-06-13T01:48:55.588Z,101635.42
2018-06-13T01:51:24.616Z,101642.12
2018-06-13T01:53:53.657Z,101633.73
2018-06-13T01:56:22.759Z,101635.42
2018-06-13T01:58:51.815Z,101639.17
2018-06-13T02:01:21.540Z,101638.19
2018-06-13T02:03:50.571Z,101641.08
2018-06-13T02:06:20.248Z,101645.56
2018-06-13T02:08:49.483Z,101644.56
2018-06-13T02:11:18.581Z,101647.48
2018-06-13T02:13:47.648Z,101648.42
2018-06-13T02:16:16.765Z,101644.48
2018-06-13T02:18:45.839Z,101645.56
2018-06-13T02:21:14.911Z,101645.86
2018-06-13T02:23:43.954Z,101644.19
2018-06-13T02:26:13.118Z,101646.04
2018-06-13T02:28:42.189Z,101648.73
2018-06-13T02:31:11.329Z,101647.80
2018-06-13T02:33:40.363Z,101649.27
2018-06-13T02:36:09.472Z,101654.02
2018-06-13T02:38:38.483Z,101648.52
2018-06-13T02:41:07.518Z,101654.33
2018-06-13T02:43:36.534Z,101658.75
2018-06-13T02:46:06.061Z,101663.44
2018-06-13T02:48:35.090Z,101665.30
2018-06-13T02:51:04.452Z,101668.33
2018-06-13T02:53:33.457Z,101668.57
2018-06-13T02:56:03.574Z,101671.03
2018-06-13T02:58:32.590Z,101668.25
2018-06-13T03:14:01.832Z,101665.88
2018-06-13T03:16:30.925Z,101666.81
2018-06-13T03:19:00.010Z,101670.13
2018-06-13T03:21:29.051Z,101669.94
2018-06-13T03:23:58.946Z,101681.44
2018-06-13T03:26:27.964Z,101686.38
2018-06-13T03:28:57.133Z,101681.41
2018-06-13T03:31:31.668Z,101678.38
2018-06-13T03:34:00.735Z,101687.19
2018-06-13T03:36:29.760Z,101683.20
2018-06-13T03:38:58.886Z,101681.70
2018-06-13T03:41:27.931Z,101676.88
2018-06-13T03:43:57.556Z,101675.02
2018-06-13T03:46:26.593Z,101681.69
2018-06-13T03:48:55.956Z,101681.47
2018-06-13T03:51:25.368Z,101674.19
2018-06-13T03:53:54.454Z,101682.44
2018-06-13T03:56:23.518Z,101678.34
2018-06-13T03:58:52.578Z,101677.37
2018-06-13T04:01:21.610Z,101678.72
2018-06-13T04:03:50.636Z,101681.63
2018-06-13T04:06:21.224Z,101686.44
2018-06-13T04:08:50.278Z,101687.63
2018-06-13T04:11:19.282Z,101684.46
2018-06-13T04:13:48.365Z,101685.73
2018-06-13T04:16:19.737Z,101686.06
2018-06-13T04:18:48.746Z,101686.27
2018-06-13T04:21:18.688Z,101689.59
2018-06-13T04:23:47.818Z,101680.44
2018-06-13T04:26:16.828Z,101686.33
2018-06-13T04:28:45.897Z,101682.97
2018-06-13T04:31:15.178Z,101679.87
2018-06-13T04:33:44.684Z,101677.41
2018-06-13T04:36:14.064Z,101677.95
2018-06-13T04:38:43.424Z,101679.75
2018-06-13T04:41:12.548Z,101691.69
2018-06-13T04:43:42.146Z,101681.63
2018-06-13T04:46:11.492Z,101690.80
2018-06-13T04:48:40.567Z,101693.77
2018-06-13T04:51:09.649Z,101693.61
2018-06-13T04:53:38.700Z,101697.17
2018-06-13T04:56:09.230Z,101690.86
2018-06-13T04:58:38.422Z,101696.95
2018-06-13T05:01:07.522Z,101692.98
2018-06-13T05:03:36.827Z,101690.98
2018-06-13T05:06:06.108Z,101695.73
2018-06-13T05:08:35.299Z,101699.42
2018-06-13T05:11:04.339Z,101706.80
2018-06-13T05:13:33.444Z,101705.25
2018-06-13T05:16:02.488Z,101709.70
2018-06-13T05:18:31.526Z,101709.00
2018-06-13T05:21:00.585Z,101706.22
2018-06-13T05:23:29.617Z,101711.22
2018-06-13T05:25:58.658Z,101714.33
2018-06-13T05:28:27.703Z,101705.86
2018-06-13T05:30:57.098Z,101707.41
2018-06-13T05:33:26.148Z,101708.92
2018-06-13T05:35:55.194Z,101703.73
2018-06-13T05:38:24.211Z,101715.39
2018-06-13T05:40:58.672Z,101706.44
2018-06-13T05:43:27.746Z,101708.72
2018-06-13T05:45:56.818Z,101707.62
2018-06-13T05:48:25.884Z,101714.41
2018-06-13T05:50:55.608Z,101707.24
2018-06-13T05:53:24.674Z,101709.95
2018-06-13T05:55:53.820Z,101712.52
2018-06-13T05:58:22.880Z,101716.62
2018-06-13T06:00:52.008Z,101723.61
2018-06-13T06:03:21.052Z,101725.30
2018-06-13T06:05:50.134Z,101724.10
2018-06-13T06:08:19.190Z,101719.44
2018-06-13T06:10:48.238Z,101728.04
2018-06-13T06:13:17.447Z,101720.58
2018-06-13T06:15:46.498Z,101723.20
2018-06-13T06:18:15.597Z,101731.23
2018-06-13T06:20:44.597Z,101720.02
2018-06-13T06:23:14.492Z,101727.50
2018-06-13T06:25:43.576Z,101731.22
2018-06-13T06:28:12.698Z,101729.14
2018-06-13T06:30:41.765Z,101722.77
2018-06-13T06:33:10.862Z,101727.67
2018-06-13T06:35:39.890Z,101731.07
2018-06-13T06:38:08.970Z,101728.00
2018-06-13T06:40:38.087Z,101724.44
2018-06-13T06:43:07.109Z,101725.54
2018-06-13T06:45:36.599Z,101728.11
2018-06-13T06:48:05.809Z,101722.83
2018-06-13T06:50:34.881Z,101729.63
2018-06-13T06:53:03.950Z,101724.56
2018-06-13T06:55:33.041Z,101734.78
2018-06-13T06:58:02.095Z,101736.59
2018-06-13T07:00:31.465Z,101734.02
2018-06-13T07:03:00.495Z,101735.16
2018-06-13T07:05:29.605Z,101733.44
2018-06-13T07:07:58.705Z,101738.10
2018-06-13T07:10:27.741Z,101737.16
2018-06-13T07:12:56.785Z,101742.73
2018-06-13T07:15:25.821Z,101749.69
2018-06-13T07:17:55.973Z,101747.10
2018-06-13T07:20:25.015Z,101751.20
2018-06-13T07:22:54.209Z,101753.94
2018-06-13T07:25:23.215Z,101753.53
2018-06-13T07:27:52.265Z,101761.27
2018-06-13T07:30:21.345Z,101757.21
2018-06-13T07:32:50.407Z,101765.31
2018-06-13T07:35:20.176Z,101771.45
2018-06-13T07:37:49.244Z,101762.00
2018-06-13T07:40:19.496Z,101755.86
2018-06-13T07:42:49.283Z,101763.03
2018-06-13T07:45:18.957Z,101767.69
2018-06-13T07:47:47.955Z,101766.83
2018-06-13T07:50:17.039Z,101779.23
2018-06-13T07:52:46.128Z,101773.70
2018-06-13T07:55:15.289Z,101771.09
2018-06-13T07:57:44.270Z,101769.33
2018-06-13T08:00:13.551Z,101764.25
2018-06-13T08:02:42.748Z,101765.69
2018-06-13T08:05:11.849Z,101761.55
2018-06-13T08:07:40.933Z,101769.53
2018-06-13T08:10:10.010Z,101782.27
2018-06-13T08:12:39.082Z,101769.25
2018-06-13T08:15:08.153Z,101770.06
2018-06-13T08:17:37.215Z,101771.94
2018-06-13T08:20:06.311Z,101778.03
2018-06-13T08:22:35.400Z,101770.44
2018-06-13T08:25:04.565Z,101776.45
2018-06-13T08:27:33.622Z,101778.55
2018-06-13T08:30:02.722Z,101780.99
2018-06-13T08:32:31.769Z,101781.55
2018-06-13T08:35:00.777Z,101772.30
2018-06-13T08:37:29.925Z,101767.19
2018-06-13T08:39:59.025Z,101770.01
2018-06-13T08:42:28.129Z,101759.48
2018-06-13T08:44:57.593Z,101764.28
2018-06-13T08:47:26.693Z,101772.05
2018-06-13T08:49:55.769Z,101771.64
2018-06-13T08:52:25.410Z,101783.70
2018-06-13T08:54:54.813Z,101772.67
2018-06-13T08:57:23.905Z,101775.42
2018-06-13T08:59:53.399Z,101768.48
2018-06-13T09:02:27.461Z,101779.45
2018-06-13T09:04:57.191Z,101767.09
2018-06-13T09:07:26.371Z,101774.73
2018-06-13T09:09:55.493Z,101773.10
2018-06-13T09:12:24.637Z,101768.73
2018-06-13T09:14:53.673Z,101764.81
2018-06-13T09:17:22.697Z,101761.16
2018-06-13T09:19:52.045Z,101760.05
2018-06-13T09:22:21.067Z,101763.64
2018-06-13T09:24:50.351Z,101773.80
2018-06-13T09:27:19.433Z,101770.13
2018-06-13T09:29:48.528Z,101764.81
2018-06-13T09:32:17.563Z,101769.06
2018-06-13T09:34:46.649Z,101777.76
2018-06-13T09:37:15.758Z,101771.05
2018-06-13T09:39:44.773Z,101770.48
2018-06-13T09:42:14.838Z,101776.28
2018-06-13T09:44:43.981Z,101766.80
2018-06-13T09:47:15.129Z,101779.00
2018-06-13T09:49:42.601Z,101776.59
2018-06-13T10:05:12.542Z,101775.33
2018-06-13T10:07:42.357Z,101773.80
2018-06-13T10:10:11.754Z,101773.75
2018-06-13T10:12:40.864Z,101779.16
2018-06-13T10:28:11.152Z,101797.08
2018-06-13T10:30:40.339Z,101807.73
2018-06-13T10:33:09.619Z,101796.50
2018-06-13T10:35:38.866Z,101785.98
2018-06-13T10:38:08.685Z,101782.97
2018-06-13T10:40:37.794Z,101798.94
2018-06-13T10:43:08.313Z,101795.45
2018-06-13T10:45:37.631Z,101797.17
2018-06-13T10:48:08.263Z,101792.70
2018-06-13T10:50:38.079Z,101799.02
2018-06-13T10:53:07.537Z,101799.52
2018-06-13T10:55:38.533Z,101804.27
2018-06-13T10:58:07.597Z,101808.23
2018-06-13T11:00:36.757Z,101805.11
2018-06-13T11:03:05.929Z,101800.08
2018-06-13T11:05:35.057Z,101802.58
2018-06-13T11:08:04.137Z,101785.80
2018-06-13T11:10:33.235Z,101790.50
2018-06-13T11:13:02.242Z,101785.67
2018-06-13T11:15:31.252Z,101787.25
2018-06-13T11:18:00.563Z,101784.62
2018-06-13T11:20:29.839Z,101780.34
2018-06-13T11:22:59.133Z,101780.93
2018-06-13T11:25:28.361Z,101781.70
2018-06-13T11:27:57.424Z,101790.13
2018-06-13T11:30:26.519Z,101786.74
2018-06-13T11:32:55.750Z,101791.48
2018-06-13T11:35:24.755Z,101786.75
2018-06-13T11:37:54.990Z,101791.67
2018-06-13T11:40:24.283Z,101784.62
2018-06-13T11:42:53.351Z,101785.08
2018-06-13T11:45:22.645Z,101789.80
2018-06-13T11:47:52.024Z,101787.83
2018-06-13T11:50:21.160Z,101784.41
2018-06-13T11:52:50.721Z,101777.05
2018-06-13T11:55:19.829Z,101777.20
2018-06-13T11:57:48.831Z,101784.48
2018-06-13T12:00:17.999Z,101788.86
2018-06-13T12:02:46.975Z,101782.94
2018-06-13T12:05:16.065Z,101786.41
2018-06-13T12:07:45.090Z,101795.72
2018-06-13T12:10:14.131Z,101785.80
2018-06-13T12:12:43.146Z,101792.56
2018-06-13T12:15:12.357Z,101770.69
2018-06-13T12:17:41.370Z,101773.20
2018-06-13T12:20:10.372Z,101771.34
2018-06-13T12:22:39.464Z,101773.05
2018-06-13T12:25:08.505Z,101776.45
2018-06-13T12:27:37.643Z,101770.09
2018-06-13T12:30:07.055Z,101782.68
2018-06-13T12:32:37.483Z,101782.09
2018-06-13T12:35:06.963Z,101775.91
2018-06-13T12:37:36.057Z,101779.25
2018-06-13T12:40:05.261Z,101777.58
2018-06-13T12:42:34.310Z,101777.09
2018-06-13T12:45:03.346Z,101776.02
2018-06-13T12:47:32.398Z,101777.78
2018-06-13T12:50:01.376Z,101767.14
2018-06-13T12:52:30.408Z,101761.77
2018-06-13T12:54:59.476Z,101762.05
2018-06-13T12:57:28.505Z,101770.77
2018-06-13T12:59:57.722Z,101770.64
2018-06-13T13:02:27.040Z,101760.30
2018-06-13T13:04:56.088Z,101758.72
2018-06-13T13:07:25.141Z,101761.03
2018-06-13T13:09:54.589Z,101760.44
2018-06-13T13:12:23.611Z,101752.41
2018-06-13T13:14:52.636Z,101757.43
2018-06-13T13:17:21.672Z,101766.16
2018-06-13T13:19:50.704Z,101757.40
2018-06-13T13:22:19.719Z,101761.93
2018-06-13T13:24:48.743Z,101761.37
2018-06-13T13:27:17.794Z,101758.89
2018-06-13T13:29:46.825Z,101752.30
2018-06-13T13:32:15.887Z,101756.25
2018-06-13T13:34:45.252Z,101754.35
2018-06-13T13:37:14.317Z,101757.78
2018-06-13T13:39:43.679Z,101759.02
2018-06-13T13:42:12.977Z,101755.41
2018-06-13T13:44:42.339Z,101752.76
2018-06-13T13:47:11.388Z,101754.95
2018-06-13T13:49:40.384Z,101755.18
2018-06-13T13:52:09.446Z,101752.04
2018-06-13T13:54:38.720Z,101764.93
2018-06-13T13:57:07.736Z,101754.66
2018-06-13T13:59:36.924Z,101762.88
2018-06-13T14:02:05.953Z,101762.95
2018-06-13T14:04:34.968Z,101759.93
2018-06-13T14:07:04.104Z,101761.77
2018-06-13T14:09:33.310Z,101759.14
2018-06-13T14:12:02.960Z,101767.64
2018-06-13T14:14:31.986Z,101766.69
2018-06-13T14:17:01.042Z,101772.25
2018-06-13T14:19:30.062Z,101763.02
2018-06-13T14:21:59.138Z,101764.94
2018-06-13T14:24:28.448Z,101759.84
2018-06-13T14:26:57.457Z,101766.36
2018-06-13T14:29:26.500Z,101758.22
2018-06-13T14:32:01.192Z,101762.94
2018-06-13T14:34:30.942Z,101752.14
2018-06-13T14:36:59.984Z,101754.02
2018-06-13T14:39:29.896Z,101759.02
2018-06-13T14:41:58.901Z,101758.45
2018-06-13T14:44:28.344Z,101761.66
2018-06-13T14:46:57.360Z,101758.39
2018-06-13T14:49:26.616Z,101760.73
2018-06-13T14:51:55.970Z,101757.00
2018-06-13T14:54:24.980Z,101744.79
2018-06-13T14:56:54.044Z,101741.17
2018-06-13T14:59:23.033Z,101747.00
2018-06-13T15:01:52.077Z,101751.73
2018-06-13T15:04:25.287Z,101743.89
2018-06-13T15:06:54.418Z,101738.56
2018-06-13T15:09:23.490Z,101744.41
2018-06-13T15:11:52.524Z,101741.95
2018-06-13T15:14:21.540Z,101742.91
2018-06-13T15:16:50.948Z,101746.42
2018-06-13T15:19:20.024Z,101743.11
2018-06-13T15:21:49.198Z,101747.77
2018-06-13T15:24:18.390Z,101734.70
2018-06-13T15:26:47.480Z,101733.55
2018-06-13T15:29:16.519Z,101727.06
2018-06-13T15:31:45.580Z,101733.36
2018-06-13T15:34:14.594Z,101726.67
2018-06-13T15:36:43.689Z,101724.60
2018-06-13T15:39:14.158Z,101728.83
2018-06-13T15:41:43.977Z,101735.30
2018-06-13T15:44:13.032Z,101730.73
2018-06-13T15:46:42.110Z,101730.14
2018-06-13T15:49:11.164Z,101721.25
2018-06-13T15:51:46.924Z,101721.80
2018-06-13T15:54:16.084Z,101716.05
2018-06-13T15:56:45.128Z,101710.39
2018-06-13T15:59:14.200Z,101715.22
2018-06-13T16:01:43.306Z,101710.49
2018-06-13T16:04:12.292Z,101712.95
2018-06-13T16:06:41.684Z,101715.34
2018-06-13T16:09:11.808Z,101724.27
2018-06-13T16:11:45.815Z,101716.98
2018-06-13T16:14:15.049Z,101717.22
2018-06-13T16:16:44.020Z,101719.00
2018-06-13T16:19:13.072Z,101721.21
2018-06-13T16:21:42.165Z,101732.58
2018-06-13T16:24:11.194Z,101730.92
2018-06-13T16:26:40.197Z,101732.64
2018-06-13T16:29:09.373Z,101725.08
2018-06-13T16:31:38.464Z,101728.66
2018-06-13T16:34:07.516Z,101732.36
2018-06-13T16:49:36.557Z,101729.87
2018-06-13T16:52:16.890Z,101722.94
2018-06-13T16:55:02.017Z,101724.77
2018-06-13T16:57:31.023Z,101729.67
2018-06-13T17:00:00.067Z,101723.48
2018-06-13T17:02:29.097Z,101723.80
2018-06-13T17:04:58.142Z,101723.95
2018-06-13T17:07:27.409Z,101727.27
2018-06-13T17:09:58.035Z,101727.88
2018-06-13T17:12:27.017Z,101731.40
2018-06-13T17:14:56.750Z,101728.69
2018-06-13T17:17:26.545Z,101719.62
2018-06-13T17:19:55.573Z,101716.47
2018-06-13T17:22:24.592Z,101713.98
2018-06-13T17:37:54.146Z,101713.91
2018-06-13T17:40:23.153Z,101713.91
2018-06-13T17:42:52.285Z,101702.52
2018-06-13T17:45:21.296Z,101702.78
2018-06-13T17:47:50.425Z,101703.78
2018-06-13T17:50:19.842Z,101701.80
2018-06-13T17:52:48.865Z,101699.91
2018-06-13T17:55:17.857Z,101700.67
2018-06-13T17:57:46.910Z,101709.36
2018-06-13T18:00:15.959Z,101702.44
2018-06-13T18:02:44.993Z,101701.34
2018-06-13T18:05:14.168Z,101700.08
2018-06-13T18:07:43.271Z,101695.96
2018-06-13T18:10:12.325Z,101691.94
2018-06-13T18:12:41.358Z,101699.48
2018-06-13T18:15:10.402Z,101689.42
2018-06-13T18:17:39.961Z,101681.58
2018-06-13T18:20:09.117Z,101687.27
2018-06-13T18:22:38.121Z,101683.00
2018-06-13T18:25:07.127Z,101683.80
2018-06-13T18:27:36.173Z,101689.22
2018-06-13T18:30:05.504Z,101681.53
2018-06-13T18:32:34.516Z,101683.59
2018-06-13T18:35:03.658Z,101688.22
2018-06-13T18:37:32.714Z,101685.05
2018-06-13T18:40:01.768Z,101689.48
2018-06-13T18:42:31.125Z,101681.48
2018-06-13T18:45:01.179Z,101681.90
2018-06-13T18:47:30.308Z,101685.97
2018-06-13T18:49:59.321Z,101686.71
2018-06-13T18:52:28.320Z,101685.36
2018-06-13T18:54:57.612Z,101684.19
2018-06-13T18:57:26.720Z,101684.66
2018-06-13T18:59:55.716Z,101687.11
2018-06-13T19:02:24.712Z,101686.30
2018-06-13T19:04:53.790Z,101685.81
2018-06-13T19:07:22.806Z,101688.92
2018-06-13T19:09:51.854Z,101698.22
2018-06-13T19:12:20.950Z,101701.63
2018-06-13T19:14:49.969Z,101702.98
2018-06-13T19:17:18.983Z,101707.98
2018-06-13T19:19:48.156Z,101711.36
2018-06-13T19:22:17.160Z,101719.33
2018-06-13T19:24:46.192Z,101712.16
2018-06-13T19:27:15.218Z,101704.13
2018-06-13T19:29:45.201Z,101700.16
2018-06-13T19:32:14.689Z,101699.36
2018-06-13T19:34:43.770Z,101704.55
2018-06-13T19:37:12.786Z,101701.18
2018-06-13T19:39:43.074Z,101699.92
2018-06-13T19:42:12.602Z,101701.02
2018-06-13T19:44:41.887Z,101696.72
2018-06-13T19:47:16.263Z,101701.12
2018-06-13T19:49:45.618Z,101698.11
2018-06-13T19:52:14.888Z,101705.81
2018-06-13T19:54:49.745Z,101706.24
2018-06-13T19:57:18.804Z,101695.66
2018-06-13T19:59:47.872Z,101698.64
2018-06-13T20:02:16.872Z,101701.75
2018-06-13T20:04:52.228Z,101697.12
2018-06-13T20:07:21.401Z,101698.20
2018-06-13T20:09:50.427Z,101702.44
2018-06-13T20:12:55.849Z,101696.25
2018-06-13T20:15:30.288Z,101695.92
2018-06-13T20:19:04.022Z,101692.72
2018-06-13T20:21:33.163Z,101699.43
2018-06-13T20:24:02.154Z,101699.69
2018-06-13T20:26:36.532Z,101699.97
2018-06-13T20:30:13.137Z,101695.92
2018-06-13T20:32:42.310Z,101696.05
2018-06-13T20:35:11.328Z,101693.47
2018-06-13T20:37:40.478Z,101691.42
2018-06-13T20:40:09.688Z,101689.99
2018-06-13T20:42:38.712Z,101688.62
2018-06-13T20:45:07.838Z,101692.30
2018-06-13T20:47:36.887Z,101688.48
2018-06-13T20:50:06.110Z,101688.84
2018-06-13T20:52:35.150Z,101693.41
2018-06-13T20:55:04.284Z,101685.72
2018-06-13T20:57:33.378Z,101687.45
2018-06-13T21:00:02.482Z,101682.72
2018-06-13T21:02:31.546Z,101682.97
2018-06-13T21:05:00.590Z,101686.16
2018-06-13T21:07:35.316Z,101687.44
2018-06-13T21:10:04.481Z,101685.31
2018-06-13T21:12:33.570Z,101683.96
2018-06-13T21:15:02.688Z,101686.94
2018-06-13T21:17:31.712Z,101687.47
2018-06-13T21:20:00.773Z,101693.83
2018-06-13T21:22:29.924Z,101682.92
2018-06-13T21:24:59.224Z,101688.58
2018-06-13T21:27:28.294Z,101688.35
2018-06-13T21:29:57.356Z,101687.13
2018-06-13T21:32:26.548Z,101687.98
2018-06-13T21:34:56.310Z,101690.52
2018-06-13T21:37:25.354Z,101691.28
2018-06-13T21:39:54.476Z,101689.64
2018-06-13T21:42:24.276Z,101684.61
2018-06-13T21:44:53.330Z,101688.27
2018-06-13T21:47:22.368Z,101687.91
2018-06-13T21:49:51.396Z,101690.79
2018-06-13T21:52:20.432Z,101687.81
2018-06-13T21:54:49.504Z,101688.25
2018-06-13T21:57:18.585Z,101688.43
2018-06-13T21:59:47.863Z,101684.00
2018-06-13T22:02:17.153Z,101684.48
2018-06-13T22:04:46.192Z,101681.39
2018-06-13T22:07:15.337Z,101680.13
2018-06-13T22:09:44.371Z,101677.04
2018-06-13T22:12:13.905Z,101681.66
2018-06-13T22:14:43.018Z,101682.17
2018-06-13T22:17:12.077Z,101674.73
2018-06-13T22:19:41.780Z,101672.58
2018-06-13T22:22:10.805Z,101664.28
2018-06-13T22:24:39.823Z,101662.51
2018-06-13T22:27:08.832Z,101655.93
2018-06-13T22:29:38.506Z,101655.75
2018-06-13T22:32:08.457Z,101657.70
2018-06-13T22:34:37.571Z,101654.97
2018-06-13T22:37:06.806Z,101662.61
2018-06-13T22:39:36.088Z,101665.73
2018-06-13T22:42:05.373Z,101657.34
2018-06-13T22:44:34.913Z,101652.72
2018-06-13T22:47:03.934Z,101658.98
2018-06-13T22:49:32.977Z,101649.83
2018-06-13T22:52:02.059Z,101647.05
2018-06-13T22:54:31.064Z,101648.95
2018-06-13T22:57:00.109Z,101647.72
2018-06-13T22:59:29.166Z,101642.09
2018-06-13T23:01:58.295Z,101638.52
2018-06-13T23:04:28.254Z,101644.82
2018-06-13T23:06:57.261Z,101641.73
2018-06-13T23:09:27.015Z,101639.20
2018-06-13T23:11:56.020Z,101638.94
2018-06-13T23:14:25.033Z,101636.70
2018-06-13T23:16:54.083Z,101633.13
2018-06-13T23:19:23.110Z,101631.29
2018-06-13T23:21:53.021Z,101629.08
2018-06-13T23:24:22.058Z,101626.69
2018-06-13T23:26:51.205Z,101626.47
2018-06-13T23:29:20.317Z,101619.75
2018-06-13T23:31:49.307Z,101620.97
2018-06-13T23:34:18.324Z,101622.63
2018-06-13T23:36:47.686Z,101617.40
2018-06-13T23:39:16.669Z,101617.98
2018-06-13T23:41:45.693Z,101610.28
2018-06-13T23:44:16.161Z,101615.02
2018-06-13T23:46:45.553Z,101615.11
2018-06-13T23:49:14.533Z,101612.59
2018-06-13T23:51:43.517Z,101612.09
2018-06-13T23:54:12.547Z,101610.95
2018-06-13T23:56:41.577Z,101615.87
2018-06-13T23:59:10.593Z,101603.52
